sensor_id;sensor_type;location;lat;lon;timestamp;pressure;altitude;pressure_sealevel;temperature;humidity
46846;BME280;33947;46.804;134.252;2023-07-02T00:02:43;100073.22;;;22.65;89.09
46846;BME280;33947;46.804;134.252;2023-07-02T00:05:49;100096.59;;;23.08;89.60
46846;BME280;33947;46.804;134.252;2023-07-02T00:08:56;100083.38;;;23.36;87.49
46846;BME280;33947;46.804;134.252;2023-07-02T00:12:01;100092.81;;;23.21;86.15
46846;BME280;33947;46.804;134.252;2023-07-02T00:15:07;100079.03;;;23.65;86.83
46846;BME280;33947;46.804;134.252;2023-07-02T00:18:14;100073.16;;;24.10;83.81
46846;BME280;33947;46.804;134.252;2023-07-02T00:21:24;100087.72;;;26.29;79.77
46846;BME280;33947;46.804;134.252;2023-07-02T00:24:34;100049.09;;;25.04;79.63
46846;BME280;33947;46.804;134.252;2023-07-02T00:27:41;100051.59;;;26.46;74.15
46846;BME280;33947;46.804;134.252;2023-07-02T00:30:48;100078.84;;;26.27;74.13
46846;BME280;33947;46.804;134.252;2023-07-02T00:33:55;100086.56;;;27.48;72.93
46846;BME280;33947;46.804;134.252;2023-07-02T00:37:01;100087.47;;;29.32;67.65
46846;BME280;33947;46.804;134.252;2023-07-02T00:40:08;100055.00;;;29.37;64.96
46846;BME280;33947;46.804;134.252;2023-07-02T00:43:14;100079.06;;;29.90;64.20
46846;BME280;33947;46.804;134.252;2023-07-02T00:46:22;100086.38;;;28.93;64.65
46846;BME280;33947;46.804;134.252;2023-07-02T00:49:31;100086.13;;;27.34;69.23
46846;BME280;33947;46.804;134.252;2023-07-02T00:52:37;100087.13;;;26.08;71.94
46846;BME280;33947;46.804;134.252;2023-07-02T00:55:44;100073.38;;;26.64;73.29
46846;BME280;33947;46.804;134.252;2023-07-02T00:58:53;100085.16;;;28.29;66.55
46846;BME280;33947;46.804;134.252;2023-07-02T01:02:00;100088.31;;;29.89;62.38
46846;BME280;33947;46.804;134.252;2023-07-02T01:05:06;100084.91;;;29.87;61.13
46846;BME280;33947;46.804;134.252;2023-07-02T01:08:13;100059.22;;;28.67;60.94
46846;BME280;33947;46.804;134.252;2023-07-02T01:11:26;100053.75;;;28.34;65.55
46846;BME280;33947;46.804;134.252;2023-07-02T01:14:41;100084.22;;;29.85;61.91
46846;BME280;33947;46.804;134.252;2023-07-02T01:17:51;100066.63;;;30.57;59.59
46846;BME280;33947;46.804;134.252;2023-07-02T01:21:01;100088.34;;;31.81;54.53
46846;BME280;33947;46.804;134.252;2023-07-02T01:24:07;100082.03;;;31.20;55.57
46846;BME280;33947;46.804;134.252;2023-07-02T01:27:14;100085.16;;;31.32;56.66
46846;BME280;33947;46.804;134.252;2023-07-02T01:30:21;100066.97;;;30.39;57.48
46846;BME280;33947;46.804;134.252;2023-07-02T01:33:28;100073.03;;;30.50;59.44
46846;BME280;33947;46.804;134.252;2023-07-02T01:36:35;100084.00;;;30.50;57.01
46846;BME280;33947;46.804;134.252;2023-07-02T01:39:45;100070.56;;;29.28;62.46
46846;BME280;33947;46.804;134.252;2023-07-02T01:42:58;100063.97;;;28.89;62.02
46846;BME280;33947;46.804;134.252;2023-07-02T01:46:05;100083.72;;;27.57;66.01
46846;BME280;33947;46.804;134.252;2023-07-02T01:49:14;100065.78;;;26.94;68.05
46846;BME280;33947;46.804;134.252;2023-07-02T01:52:21;100037.16;;;27.51;66.00
46846;BME280;33947;46.804;134.252;2023-07-02T01:55:28;100064.91;;;27.89;63.88
46846;BME280;33947;46.804;134.252;2023-07-02T01:58:34;100046.09;;;27.69;63.81
46846;BME280;33947;46.804;134.252;2023-07-02T02:01:42;100075.53;;;28.09;64.31
46846;BME280;33947;46.804;134.252;2023-07-02T02:04:48;100074.16;;;29.29;58.69
46846;BME280;33947;46.804;134.252;2023-07-02T02:07:57;100070.06;;;29.73;57.48
46846;BME280;33947;46.804;134.252;2023-07-02T02:11:03;100073.19;;;30.01;54.98
46846;BME280;33947;46.804;134.252;2023-07-02T02:14:09;100068.03;;;30.30;57.06
46846;BME280;33947;46.804;134.252;2023-07-02T02:17:16;100074.31;;;29.84;57.25
46846;BME280;33947;46.804;134.252;2023-07-02T02:20:22;100073.13;;;30.65;56.97
46846;BME280;33947;46.804;134.252;2023-07-02T02:23:29;100073.75;;;31.05;55.34
46846;BME280;33947;46.804;134.252;2023-07-02T02:26:36;100067.19;;;29.10;59.54
46846;BME280;33947;46.804;134.252;2023-07-02T02:29:43;100043.16;;;28.30;62.10
46846;BME280;33947;46.804;134.252;2023-07-02T02:32:50;100054.41;;;28.52;60.65
46846;BME280;33947;46.804;134.252;2023-07-02T02:36:05;100045.53;;;28.83;58.80
46846;BME280;33947;46.804;134.252;2023-07-02T02:39:12;100066.72;;;28.40;61.16
46846;BME280;33947;46.804;134.252;2023-07-02T02:42:22;100064.09;;;29.21;59.76
46846;BME280;33947;46.804;134.252;2023-07-02T02:45:32;100071.25;;;29.79;58.51
46846;BME280;33947;46.804;134.252;2023-07-02T02:48:39;100046.97;;;29.75;56.98
46846;BME280;33947;46.804;134.252;2023-07-02T02:51:45;100043.75;;;30.03;56.88
46846;BME280;33947;46.804;134.252;2023-07-02T02:54:52;100054.38;;;29.67;56.92
46846;BME280;33947;46.804;134.252;2023-07-02T02:57:58;100045.91;;;29.85;55.47
46846;BME280;33947;46.804;134.252;2023-07-02T03:01:05;100052.59;;;29.34;57.56
46846;BME280;33947;46.804;134.252;2023-07-02T03:04:17;100035.59;;;29.07;56.25
46846;BME280;33947;46.804;134.252;2023-07-02T03:07:23;100059.38;;;29.95;55.20
46846;BME280;33947;46.804;134.252;2023-07-02T03:10:30;100057.81;;;30.24;55.36
46846;BME280;33947;46.804;134.252;2023-07-02T03:13:36;100051.75;;;29.73;55.33
46846;BME280;33947;46.804;134.252;2023-07-02T03:16:43;100047.91;;;29.59;56.57
46846;BME280;33947;46.804;134.252;2023-07-02T03:19:51;100033.84;;;29.14;57.49
46846;BME280;33947;46.804;134.252;2023-07-02T03:22:57;100027.97;;;29.34;55.67
46846;BME280;33947;46.804;134.252;2023-07-02T03:26:04;100046.31;;;29.25;58.18
46846;BME280;33947;46.804;134.252;2023-07-02T03:29:11;100043.50;;;29.50;57.10
46846;BME280;33947;46.804;134.252;2023-07-02T03:32:17;99999.41;;;28.14;59.13
46846;BME280;33947;46.804;134.252;2023-07-02T03:35:23;99989.19;;;27.91;60.07
46846;BME280;33947;46.804;134.252;2023-07-02T03:38:30;100016.63;;;29.06;57.60
46846;BME280;33947;46.804;134.252;2023-07-02T03:41:36;100014.03;;;29.12;57.14
46846;BME280;33947;46.804;134.252;2023-07-02T03:44:43;99984.47;;;29.08;55.04
46846;BME280;33947;46.804;134.252;2023-07-02T03:47:49;99983.69;;;28.91;56.32
46846;BME280;33947;46.804;134.252;2023-07-02T03:50:55;99999.25;;;29.30;56.62
46846;BME280;33947;46.804;134.252;2023-07-02T03:54:02;99995.94;;;29.11;55.37
46846;BME280;33947;46.804;134.252;2023-07-02T03:57:08;99999.63;;;29.27;56.67
46846;BME280;33947;46.804;134.252;2023-07-02T04:00:15;100007.09;;;29.33;55.66
46846;BME280;33947;46.804;134.252;2023-07-02T04:03:23;100001.81;;;29.40;56.29
46846;BME280;33947;46.804;134.252;2023-07-02T04:06:31;99968.97;;;28.92;56.71
46846;BME280;33947;46.804;134.252;2023-07-02T04:09:40;99975.72;;;29.21;54.61
46846;BME280;33947;46.804;134.252;2023-07-02T04:12:44;99977.47;;;29.13;55.28
46846;BME280;33947;46.804;134.252;2023-07-02T04:15:50;99952.94;;;28.88;55.99
46846;BME280;33947;46.804;134.252;2023-07-02T04:18:58;99995.50;;;28.83;56.33
46846;BME280;33947;46.804;134.252;2023-07-02T04:22:04;99981.13;;;28.89;56.94
46846;BME280;33947;46.804;134.252;2023-07-02T04:25:12;99978.84;;;29.09;56.97
46846;BME280;33947;46.804;134.252;2023-07-02T04:28:41;99993.13;;;29.28;56.58
46846;BME280;33947;46.804;134.252;2023-07-02T04:31:48;99974.06;;;29.11;55.31
46846;BME280;33947;46.804;134.252;2023-07-02T04:34:55;99985.97;;;29.18;55.47
46846;BME280;33947;46.804;134.252;2023-07-02T04:38:02;99980.81;;;29.24;55.72
46846;BME280;33947;46.804;134.252;2023-07-02T04:41:08;99981.13;;;29.37;55.54
46846;BME280;33947;46.804;134.252;2023-07-02T04:44:19;99975.97;;;29.02;56.08
46846;BME280;33947;46.804;134.252;2023-07-02T04:47:31;99919.72;;;28.35;57.05
46846;BME280;33947;46.804;134.252;2023-07-02T04:50:37;99971.22;;;29.28;55.40
46846;BME280;33947;46.804;134.252;2023-07-02T04:53:44;99967.63;;;29.67;55.77
46846;BME280;33947;46.804;134.252;2023-07-02T04:56:51;99953.22;;;29.10;55.45
46846;BME280;33947;46.804;134.252;2023-07-02T04:59:57;99961.97;;;28.97;55.93
46846;BME280;33947;46.804;134.252;2023-07-02T05:03:04;99956.72;;;28.71;55.60
46846;BME280;33947;46.804;134.252;2023-07-02T05:06:11;99958.63;;;28.54;56.43
46846;BME280;33947;46.804;134.252;2023-07-02T05:09:17;99953.34;;;28.44;57.66
46846;BME280;33947;46.804;134.252;2023-07-02T05:12:23;99936.25;;;28.58;56.41
46846;BME280;33947;46.804;134.252;2023-07-02T05:15:30;99967.63;;;28.87;56.42
46846;BME280;33947;46.804;134.252;2023-07-02T05:18:39;99963.38;;;29.25;55.85
46846;BME280;33947;46.804;134.252;2023-07-02T05:21:48;99969.31;;;28.97;54.76
46846;BME280;33947;46.804;134.252;2023-07-02T05:24:55;99972.53;;;29.00;56.19
46846;BME280;33947;46.804;134.252;2023-07-02T05:28:01;99971.78;;;28.50;56.32
46846;BME280;33947;46.804;134.252;2023-07-02T05:31:07;99972.44;;;28.11;53.49
46846;BME280;33947;46.804;134.252;2023-07-02T05:34:14;99978.06;;;28.01;56.22
46846;BME280;33947;46.804;134.252;2023-07-02T05:37:23;99976.00;;;27.78;57.28
46846;BME280;33947;46.804;134.252;2023-07-02T05:40:29;99912.38;;;27.53;56.75
46846;BME280;33947;46.804;134.252;2023-07-02T05:43:36;99972.47;;;27.94;56.30
46846;BME280;33947;46.804;134.252;2023-07-02T05:46:42;99955.75;;;27.97;55.54
46846;BME280;33947;46.804;134.252;2023-07-02T05:49:49;99969.00;;;27.67;56.45
46846;BME280;33947;46.804;134.252;2023-07-02T05:52:55;99952.03;;;27.39;56.81
46846;BME280;33947;46.804;134.252;2023-07-02T05:56:02;99962.03;;;27.30;57.27
46846;BME280;33947;46.804;134.252;2023-07-02T05:59:08;99967.97;;;27.25;57.73
46846;BME280;33947;46.804;134.252;2023-07-02T06:02:15;99954.97;;;27.11;57.92
46846;BME280;33947;46.804;134.252;2023-07-02T06:05:21;99922.88;;;26.70;59.06
46846;BME280;33947;46.804;134.252;2023-07-02T06:08:28;99933.94;;;26.34;60.41
46846;BME280;33947;46.804;134.252;2023-07-02T06:11:34;99961.91;;;26.44;59.96
46846;BME280;33947;46.804;134.252;2023-07-02T06:14:41;99937.19;;;26.01;60.44
46846;BME280;33947;46.804;134.252;2023-07-02T06:17:47;99948.63;;;26.05;60.69
46846;BME280;33947;46.804;134.252;2023-07-02T06:20:53;99961.25;;;26.06;61.09
46846;BME280;33947;46.804;134.252;2023-07-02T06:24:09;99972.44;;;25.84;61.61
46846;BME280;33947;46.804;134.252;2023-07-02T06:27:15;99977.63;;;26.14;61.25
46846;BME280;33947;46.804;134.252;2023-07-02T06:30:22;99983.47;;;26.37;60.64
46846;BME280;33947;46.804;134.252;2023-07-02T06:33:28;99959.88;;;26.46;60.31
46846;BME280;33947;46.804;134.252;2023-07-02T06:36:35;99955.13;;;26.48;60.46
46846;BME280;33947;46.804;134.252;2023-07-02T06:39:41;99961.72;;;26.46;60.90
46846;BME280;33947;46.804;134.252;2023-07-02T06:42:48;99978.31;;;26.52;60.57
46846;BME280;33947;46.804;134.252;2023-07-02T06:45:54;99972.34;;;26.30;61.20
46846;BME280;33947;46.804;134.252;2023-07-02T06:49:00;99979.59;;;26.40;61.23
46846;BME280;33947;46.804;134.252;2023-07-02T06:52:10;99966.38;;;26.53;60.91
46846;BME280;33947;46.804;134.252;2023-07-02T06:55:16;99963.03;;;26.59;61.33
46846;BME280;33947;46.804;134.252;2023-07-02T06:58:23;99957.03;;;26.29;62.49
46846;BME280;33947;46.804;134.252;2023-07-02T07:01:29;99938.13;;;26.10;63.30
46846;BME280;33947;46.804;134.252;2023-07-02T07:04:35;99946.63;;;26.25;63.33
46846;BME280;33947;46.804;134.252;2023-07-02T07:07:42;99961.25;;;26.24;64.24
46846;BME280;33947;46.804;134.252;2023-07-02T07:10:49;99933.34;;;26.22;63.82
46846;BME280;33947;46.804;134.252;2023-07-02T07:13:57;99929.03;;;26.19;63.48
46846;BME280;33947;46.804;134.252;2023-07-02T07:17:03;99954.06;;;26.41;63.36
46846;BME280;33947;46.804;134.252;2023-07-02T07:20:10;99933.47;;;26.47;63.63
46846;BME280;33947;46.804;134.252;2023-07-02T07:23:16;99958.69;;;26.49;63.44
46846;BME280;33947;46.804;134.252;2023-07-02T07:26:23;99970.13;;;26.52;63.85
46846;BME280;33947;46.804;134.252;2023-07-02T07:29:29;99957.25;;;26.63;63.76
46846;BME280;33947;46.804;134.252;2023-07-02T07:32:35;99973.81;;;26.69;63.49
46846;BME280;33947;46.804;134.252;2023-07-02T07:35:42;99975.56;;;26.79;63.62
46846;BME280;33947;46.804;134.252;2023-07-02T07:38:48;99969.59;;;26.49;64.31
46846;BME280;33947;46.804;134.252;2023-07-02T07:42:05;99971.25;;;26.68;63.51
46846;BME280;33947;46.804;134.252;2023-07-02T07:45:11;99947.19;;;26.55;63.60
46846;BME280;33947;46.804;134.252;2023-07-02T07:48:18;99938.41;;;26.43;64.17
46846;BME280;33947;46.804;134.252;2023-07-02T07:51:24;99954.69;;;26.61;63.13
46846;BME280;33947;46.804;134.252;2023-07-02T07:54:34;99965.59;;;26.61;63.05
46846;BME280;33947;46.804;134.252;2023-07-02T07:57:41;99961.31;;;26.58;63.25
46846;BME280;33947;46.804;134.252;2023-07-02T08:00:50;99962.50;;;26.56;63.67
46846;BME280;33947;46.804;134.252;2023-07-02T08:03:56;99966.38;;;26.53;64.25
46846;BME280;33947;46.804;134.252;2023-07-02T08:07:04;99939.56;;;26.40;63.94
46846;BME280;33947;46.804;134.252;2023-07-02T08:10:12;99962.66;;;26.54;63.67
46846;BME280;33947;46.804;134.252;2023-07-02T08:13:16;99964.22;;;26.57;63.66
46846;BME280;33947;46.804;134.252;2023-07-02T08:16:23;99947.91;;;26.39;63.58
46846;BME280;33947;46.804;134.252;2023-07-02T08:19:29;99972.75;;;26.62;63.38
46846;BME280;33947;46.804;134.252;2023-07-02T08:22:38;99938.59;;;26.50;62.85
46846;BME280;33947;46.804;134.252;2023-07-02T08:25:45;99941.91;;;26.62;63.04
46846;BME280;33947;46.804;134.252;2023-07-02T08:28:54;99958.19;;;26.80;62.85
46846;BME280;33947;46.804;134.252;2023-07-02T08:32:01;99948.13;;;26.72;63.07
46846;BME280;33947;46.804;134.252;2023-07-02T08:35:08;99950.97;;;26.62;63.55
46846;BME280;33947;46.804;134.252;2023-07-02T08:38:14;99945.28;;;26.55;63.92
46846;BME280;33947;46.804;134.252;2023-07-02T08:41:21;99958.81;;;26.65;64.16
46846;BME280;33947;46.804;134.252;2023-07-02T08:44:29;99928.44;;;26.52;64.17
46846;BME280;33947;46.804;134.252;2023-07-02T08:47:36;99972.50;;;26.82;63.25
46846;BME280;33947;46.804;134.252;2023-07-02T08:50:43;99976.91;;;26.75;63.51
46846;BME280;33947;46.804;134.252;2023-07-02T08:53:49;99980.59;;;26.65;63.75
46846;BME280;33947;46.804;134.252;2023-07-02T08:56:55;99982.13;;;26.68;63.50
46846;BME280;33947;46.804;134.252;2023-07-02T09:00:13;99996.34;;;26.80;62.67
46846;BME280;33947;46.804;134.252;2023-07-02T09:03:21;99985.25;;;26.73;63.17
46846;BME280;33947;46.804;134.252;2023-07-02T09:06:27;99988.91;;;26.64;63.04
46846;BME280;33947;46.804;134.252;2023-07-02T09:09:45;100007.16;;;26.63;62.75
46846;BME280;33947;46.804;134.252;2023-07-02T09:12:51;99973.25;;;26.39;62.94
46846;BME280;33947;46.804;134.252;2023-07-02T09:16:07;100007.94;;;26.55;62.81
46846;BME280;33947;46.804;134.252;2023-07-02T09:19:17;100005.53;;;26.52;62.72
46846;BME280;33947;46.804;134.252;2023-07-02T09:22:23;100010.34;;;26.58;63.08
46846;BME280;33947;46.804;134.252;2023-07-02T09:25:36;100002.44;;;26.47;62.69
46846;BME280;33947;46.804;134.252;2023-07-02T09:28:43;100021.19;;;26.50;63.15
46846;BME280;33947;46.804;134.252;2023-07-02T09:31:50;100002.72;;;26.18;63.99
46846;BME280;33947;46.804;134.252;2023-07-02T09:35:13;100026.97;;;26.29;64.18
46846;BME280;33947;46.804;134.252;2023-07-02T09:38:21;99991.94;;;25.98;64.11
46846;BME280;33947;46.804;134.252;2023-07-02T09:41:27;100011.94;;;26.07;64.70
46846;BME280;33947;46.804;134.252;2023-07-02T09:44:34;100007.13;;;26.00;64.70
46846;BME280;33947;46.804;134.252;2023-07-02T09:47:44;100028.41;;;26.05;65.37
46846;BME280;33947;46.804;134.252;2023-07-02T09:50:54;100013.78;;;25.88;65.55
46846;BME280;33947;46.804;134.252;2023-07-02T09:54:01;100044.41;;;25.90;66.05
46846;BME280;33947;46.804;134.252;2023-07-02T09:57:07;100043.63;;;25.80;67.60
46846;BME280;33947;46.804;134.252;2023-07-02T10:00:14;100044.56;;;25.70;68.27
46846;BME280;33947;46.804;134.252;2023-07-02T10:03:31;100045.03;;;25.56;68.83
46846;BME280;33947;46.804;134.252;2023-07-02T10:06:55;100002.41;;;25.19;69.27
46846;BME280;33947;46.804;134.252;2023-07-02T10:10:01;100060.13;;;25.40;69.85
46846;BME280;33947;46.804;134.252;2023-07-02T10:13:06;99997.09;;;24.89;70.78
46846;BME280;33947;46.804;134.252;2023-07-02T10:16:16;100038.81;;;25.08;71.48
46846;BME280;33947;46.804;134.252;2023-07-02T10:19:25;100057.66;;;25.09;71.69
46846;BME280;33947;46.804;134.252;2023-07-02T10:22:45;100060.16;;;24.93;73.98
46846;BME280;33947;46.804;134.252;2023-07-02T10:25:53;100064.47;;;24.76;73.90
46846;BME280;33947;46.804;134.252;2023-07-02T10:28:59;99994.06;;;24.15;75.21
46846;BME280;33947;46.804;134.252;2023-07-02T10:32:06;100038.59;;;24.42;75.90
46846;BME280;33947;46.804;134.252;2023-07-02T10:35:18;100056.03;;;24.30;76.48
46846;BME280;33947;46.804;134.252;2023-07-02T10:38:25;100065.91;;;24.31;76.69
46846;BME280;33947;46.804;134.252;2023-07-02T10:41:32;100069.78;;;24.28;76.66
46846;BME280;33947;46.804;134.252;2023-07-02T10:44:52;100071.19;;;24.22;77.70
46846;BME280;33947;46.804;134.252;2023-07-02T10:48:08;100035.09;;;23.71;77.87
46846;BME280;33947;46.804;134.252;2023-07-02T10:51:14;100083.38;;;23.87;78.48
46846;BME280;33947;46.804;134.252;2023-07-02T10:54:21;100055.22;;;23.78;78.19
46846;BME280;33947;46.804;134.252;2023-07-02T10:57:28;100051.63;;;23.58;79.10
46846;BME280;33947;46.804;134.252;2023-07-02T11:00:47;100087.59;;;23.60;81.05
46846;BME280;33947;46.804;134.252;2023-07-02T11:07:07;100091.78;;;23.74;80.04
46846;BME280;33947;46.804;134.252;2023-07-02T11:10:20;100098.69;;;23.57;81.31
46846;BME280;33947;46.804;134.252;2023-07-02T11:13:26;100108.06;;;23.43;81.82
46846;BME280;33947;46.804;134.252;2023-07-02T11:16:33;100088.91;;;23.35;81.41
46846;BME280;33947;46.804;134.252;2023-07-02T11:19:50;100109.28;;;23.29;82.25
46846;BME280;33947;46.804;134.252;2023-07-02T11:22:57;100110.41;;;23.26;82.82
46846;BME280;33947;46.804;134.252;2023-07-02T11:26:03;100108.22;;;23.20;82.90
46846;BME280;33947;46.804;134.252;2023-07-02T11:29:18;100111.75;;;23.11;83.71
46846;BME280;33947;46.804;134.252;2023-07-02T11:32:26;100096.06;;;22.93;83.05
46846;BME280;33947;46.804;134.252;2023-07-02T11:35:35;100100.22;;;22.76;84.52
46846;BME280;33947;46.804;134.252;2023-07-02T11:38:42;100122.03;;;22.75;84.88
46846;BME280;33947;46.804;134.252;2023-07-02T11:41:49;100126.84;;;22.71;84.90
46846;BME280;33947;46.804;134.252;2023-07-02T11:44:58;100098.94;;;22.26;86.46
46846;BME280;33947;46.804;134.252;2023-07-02T11:48:04;100117.41;;;22.21;86.54
46846;BME280;33947;46.804;134.252;2023-07-02T11:51:10;100123.47;;;22.14;87.29
46846;BME280;33947;46.804;134.252;2023-07-02T11:54:48;100120.16;;;21.98;87.51
46846;BME280;33947;46.804;134.252;2023-07-02T11:57:55;100094.88;;;21.77;87.89
46846;BME280;33947;46.804;134.252;2023-07-02T12:01:01;100123.25;;;21.82;87.99
46846;BME280;33947;46.804;134.252;2023-07-02T12:04:10;100110.75;;;21.70;88.19
46846;BME280;33947;46.804;134.252;2023-07-02T12:07:17;100125.97;;;21.71;88.14
46846;BME280;33947;46.804;134.252;2023-07-02T12:10:24;100133.09;;;21.72;88.00
46846;BME280;33947;46.804;134.252;2023-07-02T12:13:33;100093.88;;;21.32;88.69
46846;BME280;33947;46.804;134.252;2023-07-02T12:16:39;100128.78;;;21.47;88.44
46846;BME280;33947;46.804;134.252;2023-07-02T12:19:51;100113.66;;;21.21;88.37
46846;BME280;33947;46.804;134.252;2023-07-02T12:23:00;100120.50;;;21.14;88.50
46846;BME280;33947;46.804;134.252;2023-07-02T12:26:10;100097.25;;;20.89;88.74
46846;BME280;33947;46.804;134.252;2023-07-02T12:29:17;100183.13;;;21.19;89.46
46846;BME280;33947;46.804;134.252;2023-07-02T12:32:24;100177.22;;;21.14;89.81
46846;BME280;33947;46.804;134.252;2023-07-02T12:35:30;100167.63;;;20.99;90.01
46846;BME280;33947;46.804;134.252;2023-07-02T12:38:35;100150.00;;;20.81;89.98
46846;BME280;33947;46.804;134.252;2023-07-02T12:41:43;100152.97;;;20.90;89.16
46846;BME280;33947;46.804;134.252;2023-07-02T12:44:50;100195.53;;;21.22;88.43
46846;BME280;33947;46.804;134.252;2023-07-02T12:47:55;100150.13;;;20.80;88.61
46846;BME280;33947;46.804;134.252;2023-07-02T12:51:00;100186.94;;;20.81;89.54
46846;BME280;33947;46.804;134.252;2023-07-02T12:54:08;100169.06;;;20.67;90.28
46846;BME280;33947;46.804;134.252;2023-07-02T12:57:14;100151.16;;;20.66;89.55
46846;BME280;33947;46.804;134.252;2023-07-02T13:00:23;100161.25;;;20.75;88.83
46846;BME280;33947;46.804;134.252;2023-07-02T13:03:30;100173.25;;;20.71;89.77
46846;BME280;33947;46.804;134.252;2023-07-02T13:06:37;100143.69;;;20.45;90.43
46846;BME280;33947;46.804;134.252;2023-07-02T13:09:45;100141.97;;;20.44;90.21
46846;BME280;33947;46.804;134.252;2023-07-02T13:12:51;100143.59;;;20.47;89.67
46846;BME280;33947;46.804;134.252;2023-07-02T13:15:58;100128.88;;;20.27;89.90
46846;BME280;33947;46.804;134.252;2023-07-02T13:19:05;100136.59;;;20.44;89.87
46846;BME280;33947;46.804;134.252;2023-07-02T13:22:11;100122.00;;;20.22;89.47
46846;BME280;33947;46.804;134.252;2023-07-02T13:25:18;100132.78;;;20.22;89.89
46846;BME280;33947;46.804;134.252;2023-07-02T13:28:24;100148.84;;;20.24;90.40
46846;BME280;33947;46.804;134.252;2023-07-02T13:31:33;100151.91;;;20.06;90.47
46846;BME280;33947;46.804;134.252;2023-07-02T13:34:42;100159.38;;;20.03;90.24
46846;BME280;33947;46.804;134.252;2023-07-02T13:37:48;100180.59;;;20.07;91.02
46846;BME280;33947;46.804;134.252;2023-07-02T13:40:55;100160.28;;;19.90;90.88
46846;BME280;33947;46.804;134.252;2023-07-02T13:44:02;100170.25;;;19.88;91.25
46846;BME280;33947;46.804;134.252;2023-07-02T13:47:07;100183.75;;;19.88;91.66
46846;BME280;33947;46.804;134.252;2023-07-02T13:50:13;100177.53;;;19.75;92.18
46846;BME280;33947;46.804;134.252;2023-07-02T13:53:19;100175.03;;;19.72;92.61
46846;BME280;33947;46.804;134.252;2023-07-02T13:56:26;100183.34;;;19.81;92.57
46846;BME280;33947;46.804;134.252;2023-07-02T13:59:33;100185.31;;;19.92;91.79
46846;BME280;33947;46.804;134.252;2023-07-02T14:02:39;100162.44;;;19.72;91.59
46846;BME280;33947;46.804;134.252;2023-07-02T14:05:46;100163.84;;;19.91;90.63
46846;BME280;33947;46.804;134.252;2023-07-02T14:08:53;100176.09;;;19.82;90.86
46846;BME280;33947;46.804;134.252;2023-07-02T14:11:59;100177.22;;;19.66;91.41
46846;BME280;33947;46.804;134.252;2023-07-02T14:15:07;100175.19;;;19.70;91.72
46846;BME280;33947;46.804;134.252;2023-07-02T14:18:11;100150.28;;;19.41;92.12
46846;BME280;33947;46.804;134.252;2023-07-02T14:21:19;100165.78;;;19.50;92.49
46846;BME280;33947;46.804;134.252;2023-07-02T14:24:26;100173.88;;;19.50;92.24
46846;BME280;33947;46.804;134.252;2023-07-02T14:27:32;100191.78;;;19.51;92.19
46846;BME280;33947;46.804;134.252;2023-07-02T14:30:38;100160.19;;;19.27;91.89
46846;BME280;33947;46.804;134.252;2023-07-02T14:33:45;100187.56;;;19.47;91.26
46846;BME280;33947;46.804;134.252;2023-07-02T14:36:51;100192.19;;;19.58;90.62
46846;BME280;33947;46.804;134.252;2023-07-02T14:39:57;100186.19;;;19.54;90.17
46846;BME280;33947;46.804;134.252;2023-07-02T14:43:13;100201.16;;;19.58;90.85
46846;BME280;33947;46.804;134.252;2023-07-02T14:46:20;100182.59;;;19.28;91.25
46846;BME280;33947;46.804;134.252;2023-07-02T14:49:29;100162.34;;;19.22;91.66
46846;BME280;33947;46.804;134.252;2023-07-02T14:52:33;100169.34;;;19.24;91.58
46846;BME280;33947;46.804;134.252;2023-07-02T14:55:41;100191.75;;;19.25;92.36
46846;BME280;33947;46.804;134.252;2023-07-02T14:58:48;100186.03;;;19.17;93.33
46846;BME280;33947;46.804;134.252;2023-07-02T15:01:55;100159.44;;;19.12;92.47
46846;BME280;33947;46.804;134.252;2023-07-02T15:05:01;100182.03;;;19.22;92.65
46846;BME280;33947;46.804;134.252;2023-07-02T15:08:09;100171.19;;;19.24;91.44
46846;BME280;33947;46.804;134.252;2023-07-02T15:11:18;100179.47;;;19.21;91.11
46846;BME280;33947;46.804;134.252;2023-07-02T15:14:25;100178.03;;;19.02;92.17
46846;BME280;33947;46.804;134.252;2023-07-02T15:17:31;100179.22;;;18.98;93.06
46846;BME280;33947;46.804;134.252;2023-07-02T15:20:38;100197.97;;;19.00;92.79
46846;BME280;33947;46.804;134.252;2023-07-02T15:23:44;100199.63;;;18.88;93.45
46846;BME280;33947;46.804;134.252;2023-07-02T15:26:51;100186.53;;;18.69;93.19
46846;BME280;33947;46.804;134.252;2023-07-02T15:29:57;100180.66;;;18.76;93.77
46846;BME280;33947;46.804;134.252;2023-07-02T15:33:04;100196.81;;;18.89;93.48
46846;BME280;33947;46.804;134.252;2023-07-02T15:36:10;100203.28;;;18.87;93.33
46846;BME280;33947;46.804;134.252;2023-07-02T15:39:19;100202.19;;;18.76;94.43
46846;BME280;33947;46.804;134.252;2023-07-02T15:42:28;100181.25;;;18.67;94.33
46846;BME280;33947;46.804;134.252;2023-07-02T15:45:35;100198.97;;;18.84;93.43
46846;BME280;33947;46.804;134.252;2023-07-02T15:48:40;100216.63;;;18.88;92.99
46846;BME280;33947;46.804;134.252;2023-07-02T15:51:44;100223.50;;;18.79;93.49
46846;BME280;33947;46.804;134.252;2023-07-02T15:54:54;100218.50;;;18.73;94.17
46846;BME280;33947;46.804;134.252;2023-07-02T15:58:01;100146.66;;;18.20;94.93
46846;BME280;33947;46.804;134.252;2023-07-02T16:01:15;100232.84;;;18.74;94.62
46846;BME280;33947;46.804;134.252;2023-07-02T16:04:22;100226.22;;;18.65;94.30